Stations météo

réclame
Mon MeteoGroup
Barcelona, Espagne (8180): Température de l'air & dewpoint: 17.04.2018 03:00:00 - 23.04.2018 03:00:00 (CEST)Barcelona, Espagne (8180): Vitesse du vent & gusts: 17.04.2018 03:00:00 - 23.04.2018 03:00:00 (CEST)Barcelona, Espagne (8180): Direction du vent: 17.04.2018 03:00:00 - 23.04.2018 03:00:00 (CEST)Barcelona, Espagne (8180): Quantités de précipitations: 17.04.2018 03:00:00 - 23.04.2018 03:00:00 (CEST)
Date & Time tt [°C] td [°C] ff [km/h] ff [knt] fx [km/h] fx [knt] dd rr [mm]
23.04.2018 03:00:00 17,2 10,3 9 5 14 7 W 0,0
23.04.2018 02:00:00 17,0 11,7 6 4 9 5 W -
23.04.2018 01:00:00 16,5 13,5 7 4 10 6 SW 0,0
23.04.2018 00:00:00 17,4 11,9 3 1 15 8 SSW 0,0
22.04.2018 23:00:00 18,0 11,8 10 5 15 8 W 0,0
22.04.2018 22:00:00 16,8 12,3 11 6 13 7 SW 0,0
22.04.2018 21:00:00 19,2 9,7 6 3 21 11 SW 0,0
22.04.2018 20:00:00 20,0 9,6 11 6 23 12 SW -
22.04.2018 19:00:00 20,5 10,3 19 10 27 15 SW 0,0
22.04.2018 18:00:00 17,4 13,6 19 11 27 14 SSW 0,0
22.04.2018 17:00:00 19,7 11,4 17 9 29 16 SSW 0,0
22.04.2018 16:00:00 20,8 11,1 23 12 31 17 SSW 0,0
22.04.2018 15:00:00 20,5 11,4 21 11 30 16 SSW 0,0
22.04.2018 14:00:00 18,3 12,5 20 11 27 15 SSW -
22.04.2018 13:00:00 17,7 12,1 19 10 24 13 SSW 0,0
22.04.2018 12:00:00 19,9 11,3 16 9 22 12 SSW 0,0
22.04.2018 11:00:00 19,3 10,9 9 5 18 10 WSW 0,0
22.04.2018 10:00:00 18,6 11,4 3 1 7 4 E 0,0
22.04.2018 09:00:00 16,8 10,2 0 0 4 2 ESE 0,0
22.04.2018 08:00:00 15,5 9,8 0 0 3 1 NNW -
22.04.2018 07:00:00 14,7 10,2 1 1 3 2 NNE 0,0
22.04.2018 06:00:00 14,7 10,5 0 0 3 1 ENE 0,0
22.04.2018 05:00:00 15,2 11,2 1 1 4 2 SE 0,0
22.04.2018 04:00:00 15,5 10,5 0 0 2 1 N 0,0
22.04.2018 03:00:00 15,6 11,8 0 0 3 1 WSW 0,0
22.04.2018 02:00:00 16,6 10,9 1 1 5 3 NE -
22.04.2018 01:00:00 16,4 12,0 1 1 4 2 N 0,0
22.04.2018 00:00:00 16,9 11,2 2 1 8 5 S 0,0
21.04.2018 23:00:00 18,7 8,4 3 2 14 8 WSW 0,0
21.04.2018 22:00:00 19,3 8,9 9 5 18 10 W 0,0
21.04.2018 21:00:00 19,2 8,5 14 7 22 12 WSW 0,0
21.04.2018 20:00:00 19,9 9,2 15 8 25 13 SW -
21.04.2018 19:00:00 20,2 11,1 16 9 24 13 SW 0,0
21.04.2018 18:00:00 18,8 12,3 18 10 22 12 SSW 0,0
21.04.2018 17:00:00 19,5 12,2 16 8 23 12 SSW 0,0
21.04.2018 16:00:00 18,3 13,2 18 10 24 13 SSW 0,0
21.04.2018 15:00:00 18,6 13,3 18 10 24 13 SSW 0,0
21.04.2018 14:00:00 17,7 13,3 14 7 21 12 SSW -
21.04.2018 13:00:00 18,6 14,0 7 4 13 7 SE 0,0
21.04.2018 12:00:00 18,9 14,1 11 6 13 7 ESE 0,0
21.04.2018 11:00:00 18,5 13,6 6 3 11 6 ESE 0,0
21.04.2018 10:00:00 17,5 11,8 9 5 15 8 E 0,0
21.04.2018 09:00:00 16,9 10,5 1 1 10 5 N 0,0
21.04.2018 08:00:00 14,7 10,3 4 2 8 4 NE -
21.04.2018 07:00:00 13,7 9,7 5 3 7 4 N 0,0
21.04.2018 06:00:00 14,0 9,8 6 4 9 5 N 0,0
21.04.2018 05:00:00 14,3 12,0 1 1 9 5 SE 0,0
21.04.2018 04:00:00 14,8 10,8 6 3 10 5 N 0,0
21.04.2018 03:00:00 14,8 11,9 4 2 8 4 NNW 0,0
21.04.2018 02:00:00 15,2 11,6 4 2 5 3 E -
21.04.2018 01:00:00 15,7 11,2 3 2 7 4 WNW 0,0
21.04.2018 00:00:00 15,5 12,6 4 2 8 5 WSW 0,0
20.04.2018 23:00:00 15,1 13,9 5 3 6 3 S 0,0
20.04.2018 22:00:00 15,2 14,0 1 1 6 4 E 0,0
20.04.2018 21:00:00 15,9 14,2 3 2 8 4 E 0,0
20.04.2018 20:00:00 16,7 14,3 8 5 11 6 SE -
20.04.2018 19:00:00 17,8 14,3 6 3 14 8 SSE 0,0
20.04.2018 18:00:00 18,0 13,5 9 5 14 7 S 0,0
20.04.2018 17:00:00 18,1 13,4 10 5 15 8 S 0,0
20.04.2018 16:00:00 18,5 13,6 9 5 16 8 S 0,0
20.04.2018 15:00:00 19,2 12,6 9 5 16 8 SSE 0,0
20.04.2018 14:00:00 19,4 12,8 8 5 14 8 SE -
20.04.2018 13:00:00 18,6 12,8 5 3 13 7 SE 0,0
20.04.2018 12:00:00 18,5 12,0 9 5 13 7 E 0,0
20.04.2018 11:00:00 18,6 10,6 13 7 14 8 E 0,0
20.04.2018 10:00:00 18,6 9,9 5 3 16 8 NE 0,0
20.04.2018 09:00:00 16,6 10,0 7 4 17 9 N 0,0
20.04.2018 08:00:00 14,8 9,8 8 5 15 8 N -
20.04.2018 07:00:00 14,1 9,6 9 5 13 7 N 0,0
20.04.2018 06:00:00 14,3 9,7 8 4 11 6 N 0,0
20.04.2018 05:00:00 14,3 9,9 5 3 15 8 N 0,0
20.04.2018 04:00:00 14,8 10,2 6 3 10 5 N 0,0
20.04.2018 03:00:00 14,9 10,0 5 3 9 5 NE 0,0
20.04.2018 02:00:00 15,1 11,1 5 3 7 4 NE -
20.04.2018 01:00:00 15,2 12,0 3 2 16 9 NNE 0,0
20.04.2018 00:00:00 14,7 13,1 11 6 18 10 ENE 0,0
19.04.2018 23:00:00 15,0 12,6 10 5 15 8 ENE 0,0
19.04.2018 22:00:00 15,0 13,1 9 5 17 9 ENE 0,0
19.04.2018 21:00:00 15,2 12,7 11 6 21 11 ENE 0,0
19.04.2018 20:00:00 15,9 13,1 17 9 21 11 E -
19.04.2018 19:00:00 16,9 12,8 14 8 23 12 E 0,0
19.04.2018 18:00:00 16,9 13,3 18 10 23 13 E 0,0
19.04.2018 17:00:00 17,5 12,6 16 8 21 12 E 0,0
19.04.2018 16:00:00 17,8 12,6 14 8 21 11 E 0,0
19.04.2018 15:00:00 18,1 11,9 18 10 22 12 E 0,0
19.04.2018 14:00:00 18,2 11,8 19 11 24 13 ESE -
19.04.2018 13:00:00 19,5 11,8 7 4 19 11 ESE 0,0
19.04.2018 12:00:00 20,1 10,2 8 4 11 6 SE 0,0
19.04.2018 11:00:00 20,1 10,8 4 2 9 5 E 0,0
19.04.2018 10:00:00 18,7 10,3 5 3 16 9 E 0,0
19.04.2018 09:00:00 17,5 9,7 3 1 9 5 N 0,0
19.04.2018 08:00:00 15,3 8,8 5 3 11 6 NNE -
19.04.2018 07:00:00 15,1 9,0 6 3 15 8 NE 0,0
19.04.2018 06:00:00 15,5 8,7 8 5 14 8 NE 0,0
19.04.2018 05:00:00 15,5 9,6 7 4 15 8 NE 0,0
19.04.2018 04:00:00 15,8 11,2 10 5 17 9 E 0,0
19.04.2018 03:00:00 15,8 11,2 13 7 24 13 ENE 0,0
19.04.2018 02:00:00 16,8 11,1 9 5 23 13 NE -
19.04.2018 01:00:00 15,7 12,4 12 6 19 10 ESE 0,0
19.04.2018 00:00:00 18,4 9,2 8 4 16 9 NNE 0,0
18.04.2018 23:00:00 18,4 9,4 7 4 12 6 NNE 0,0
18.04.2018 22:00:00 18,3 9,7 8 5 11 6 NNW 0,0
18.04.2018 21:00:00 17,3 9,7 7 4 15 8 ENE 0,0
18.04.2018 20:00:00 18,0 9,6 9 5 18 10 E -
18.04.2018 19:00:00 18,1 10,6 15 8 19 10 E 0,0
18.04.2018 18:00:00 17,8 11,3 13 7 24 13 ENE 0,0
18.04.2018 17:00:00 18,9 11,2 13 7 16 9 E 0,0
18.04.2018 16:00:00 20,4 10,5 10 5 17 9 ESE 0,0
18.04.2018 15:00:00 21,2 11,0 8 5 15 8 ESE 0,0
18.04.2018 14:00:00 21,0 9,9 11 6 14 8 ESE -
18.04.2018 13:00:00 21,0 12,4 7 4 10 5 SE 0,0
18.04.2018 12:00:00 22,9 11,0 9 5 11 6 SE 0,0
18.04.2018 11:00:00 21,8 10,3 5 3 11 6 E 0,0
18.04.2018 10:00:00 20,4 11,1 6 3 12 6 NNE 0,0
18.04.2018 09:00:00 18,3 11,8 3 2 14 8 N 0,0
18.04.2018 08:00:00 15,6 10,8 8 4 14 7 N -
18.04.2018 07:00:00 14,7 10,5 11 6 14 8 NNW 0,0
18.04.2018 06:00:00 14,4 10,4 11 6 16 9 NNW 0,0
18.04.2018 05:00:00 14,8 10,4 9 5 16 9 NNE 0,0
18.04.2018 04:00:00 15,5 10,5 8 4 13 7 NE 0,0
18.04.2018 03:00:00 16,6 10,2 9 5 13 7 NNW 0,0
18.04.2018 02:00:00 17,2 10,3 5 3 12 7 N -
18.04.2018 01:00:00 17,3 11,3 5 3 9 5 NNW 0,0
18.04.2018 00:00:00 15,4 12,0 3 2 5 3 W 0,0
17.04.2018 23:00:00 16,1 11,2 0 0 9 5 N 0,0
17.04.2018 22:00:00 15,6 11,6 1 1 10 5 E 0,0
17.04.2018 21:00:00 15,5 10,6 9 5 16 9 SW 0,0
17.04.2018 20:00:00 16,8 10,4 9 5 20 11 SSW -
17.04.2018 19:00:00 18,3 10,4 14 7 22 12 SSW 0,0
17.04.2018 18:00:00 19,2 9,4 16 8 25 13 SSW 0,0
17.04.2018 17:00:00 19,2 10,5 17 9 26 14 SSW 0,0
17.04.2018 16:00:00 19,4 10,6 18 10 26 14 SSW 0,0
17.04.2018 15:00:00 18,5 12,0 17 9 22 12 SSW 0,0
17.04.2018 14:00:00 18,1 12,3 14 7 18 10 SSW -
17.04.2018 13:00:00 18,7 11,6 9 5 13 7 S 0,0
17.04.2018 12:00:00 18,8 11,1 9 5 16 9 S 0,0
17.04.2018 11:00:00 20,0 11,4 7 4 22 12 NNW 0,0
17.04.2018 10:00:00 18,7 11,2 7 4 22 12 NNW 0,0
17.04.2018 09:00:00 17,0 10,9 7 4 20 11 NNW 0,0
17.04.2018 08:00:00 15,6 10,8 8 4 17 9 N -
17.04.2018 07:00:00 14,5 10,5 4 2 13 7 WNW 0,0
17.04.2018 06:00:00 14,3 10,5 0 0 6 4 SSW 0,0
17.04.2018 05:00:00 14,0 10,6 1 0 4 2 S 0,0
17.04.2018 04:00:00 14,3 10,5 2 1 10 6 W 0,0
17.04.2018 03:00:00 14,6 10,6 3 2 10 5 NW 0,0

tt = Température de l'air
td = dewpoint
ff = Vitesse du vent
fx = gusts
dd = Direction du vent
rr = Quantités de précipitations

stations d'obs. à proximité